Time;durP1;ratioP1;P1;durP2;ratioP2;P2;SDS_P1;SDS_P2;PMS_P1;PMS_P2;Temp;Humidity;BMP_temperature;BMP_pressure;BME280_temperature;BME280_humidity;BME280_pressure;Samples;Min_cycle;Max_cycle;Signal;HPM_P1;HPM_P2
2022/01/11 00:00:41;;;;;;;12.10;2.50;;;26.70;99.90;;;;;;5065899;28;20220;-80
2022/01/11 00:03:12;;;;;;;12.70;2.60;;;26.80;99.90;;;;;;5072603;28;20279;-80
2022/01/11 00:05:49;;;;;;;12.55;2.10;;;27.00;99.90;;;;;;5073047;28;20575;-80
2022/01/11 00:08:29;;;;;;;12.38;2.25;;;27.10;99.90;;;;;;5072303;28;20277;-80
2022/01/11 00:11:07;;;;;;;13.32;2.40;;;27.30;99.90;;;;;;5073091;28;20559;-80
2022/01/11 00:13:40;;;;;;;11.43;2.25;;;27.40;99.90;;;;;;5072761;28;20802;-80
2022/01/11 00:16:11;;;;;;;12.95;2.10;;;27.50;99.90;;;;;;5074280;28;20205;-80
2022/01/11 00:18:42;;;;;;;9.48;2.03;;;27.60;99.90;;;;;;5077162;28;20220;-80
2022/01/11 00:21:12;;;;;;;12.38;2.33;;;27.80;99.90;;;;;;5077037;28;20189;-81
2022/01/11 00:26:31;;;;;;;11.15;2.17;;;28.20;99.90;;;;;;5074164;28;20262;-79
2022/01/11 00:29:02;;;;;;;9.90;2.38;;;28.20;99.90;;;;;;5077995;28;20196;-80
2022/01/11 00:31:33;;;;;;;9.80;2.08;;;28.20;99.90;;;;;;5076514;28;20196;-80
2022/01/11 00:34:06;;;;;;;10.23;1.98;;;28.30;99.90;;;;;;5076593;28;20561;-80
2022/01/11 00:36:42;;;;;;;13.15;2.22;;;28.30;99.90;;;;;;5065146;28;20205;-79
2022/01/11 00:39:15;;;;;;;10.90;2.05;;;28.20;99.90;;;;;;5056817;28;20185;-80
2022/01/11 00:41:49;;;;;;;12.20;2.65;;;28.00;99.90;;;;;;5067438;28;20192;-80
2022/01/11 00:44:19;;;;;;;12.38;2.05;;;27.90;99.90;;;;;;5076631;28;20200;-80
2022/01/11 00:46:51;;;;;;;10.73;2.45;;;28.00;99.90;;;;;;5076399;28;20200;-79
2022/01/11 00:49:21;;;;;;;8.73;1.73;;;28.50;99.90;;;;;;5089462;28;20185;-80
2022/01/11 00:51:52;;;;;;;12.63;2.08;;;28.70;99.90;;;;;;5096714;28;20636;-80
2022/01/11 00:54:24;;;;;;;12.70;2.42;;;28.80;99.90;;;;;;5088830;28;20566;-79
2022/01/11 00:56:55;;;;;;;11.90;2.20;;;28.90;99.90;;;;;;5056378;28;20268;-80
2022/01/11 00:59:26;;;;;;;8.00;2.30;;;28.70;99.90;;;;;;5058403;28;20225;-80
2022/01/11 01:01:57;;;;;;;9.93;2.08;;;28.60;99.90;;;;;;5076357;28;20200;-80
2022/01/11 01:04:27;;;;;;;13.05;2.22;;;28.60;99.90;;;;;;5075842;28;20216;-78
2022/01/11 01:06:58;;;;;;;10.40;2.20;;;28.50;99.90;;;;;;5076530;28;20204;-81
2022/01/11 01:09:39;;;;;;;12.05;2.20;;;28.30;99.90;;;;;;5076298;28;20189;-80
2022/01/11 01:12:10;;;;;;;8.68;2.05;;;28.30;99.90;;;;;;5061226;28;20210;-81
2022/01/11 01:14:41;;;;;;;9.55;2.13;;;28.50;99.90;;;;;;5060992;28;20228;-83
2022/01/11 01:17:15;;;;;;;11.10;2.10;;;28.70;99.90;;;;;;5075580;28;20213;-81
2022/01/11 01:19:46;;;;;;;9.57;2.10;;;28.70;99.90;;;;;;5075845;28;20204;-80
2022/01/11 01:22:17;;;;;;;12.73;1.92;;;28.60;99.90;;;;;;5075557;28;20193;-80
2022/01/11 01:24:50;;;;;;;10.40;2.33;;;28.70;99.90;;;;;;5076018;28;20189;-80
2022/01/11 01:27:21;;;;;;;12.55;1.98;;;28.70;99.90;;;;;;5075287;28;20193;-80
2022/01/11 01:29:52;;;;;;;13.52;2.28;;;28.40;99.90;;;;;;5075437;28;20554;-79
2022/01/11 01:32:23;;;;;;;12.10;2.22;;;28.60;99.90;;;;;;5075123;28;20557;-79
2022/01/11 01:34:58;;;;;;;13.38;2.42;;;28.50;99.90;;;;;;5064650;28;20601;-80
2022/01/11 01:37:29;;;;;;;11.00;2.10;;;28.40;99.90;;;;;;5075582;28;20221;-79
2022/01/11 01:40:02;;;;;;;13.60;2.60;;;28.00;99.90;;;;;;5075485;28;20660;-80
2022/01/11 01:42:33;;;;;;;11.07;2.20;;;27.90;99.90;;;;;;5095242;28;20198;-79
2022/01/11 01:45:05;;;;;;;16.58;2.80;;;27.70;99.90;;;;;;5084415;28;20304;-80
2022/01/11 01:47:38;;;;;;;13.65;2.72;;;27.50;99.90;;;;;;5077154;28;20197;-80
2022/01/11 01:50:10;;;;;;;11.85;2.72;;;27.40;99.90;;;;;;5060598;28;20689;-79
2022/01/11 01:52:41;;;;;;;13.15;2.60;;;27.40;99.90;;;;;;5066344;28;20186;-81
2022/01/11 01:55:14;;;;;;;16.08;2.88;;;27.30;99.90;;;;;;5064374;28;20695;-80
2022/01/11 01:57:45;;;;;;;11.45;2.50;;;27.30;99.90;;;;;;5076661;28;20209;-81
2022/01/11 02:00:16;;;;;;;12.18;2.40;;;27.30;99.90;;;;;;5074669;28;20225;-80
2022/01/11 02:02:47;;;;;;;11.88;2.58;;;27.30;99.90;;;;;;5074499;28;20533;-81
2022/01/11 02:05:18;;;;;;;13.45;2.38;;;27.20;99.90;;;;;;5075230;28;20200;-80
2022/01/11 02:07:49;;;;;;;13.82;3.08;;;27.20;99.90;;;;;;5058807;28;20723;-80
2022/01/11 02:10:22;;;;;;;12.18;2.42;;;27.20;99.90;;;;;;5068214;28;20560;-79
2022/01/11 02:12:54;;;;;;;14.05;2.33;;;27.20;99.90;;;;;;5068885;28;20203;-79
2022/01/11 02:15:24;;;;;;;12.80;2.42;;;27.10;99.90;;;;;;5072869;28;20229;-80
2022/01/11 02:17:55;;;;;;;10.90;2.40;;;27.20;99.90;;;;;;5074607;28;20220;-80
2022/01/11 02:20:27;;;;;;;14.48;2.38;;;27.20;99.90;;;;;;5074802;28;20288;-79
2022/01/11 02:22:58;;;;;;;13.88;2.30;;;27.20;99.90;;;;;;5072726;28;20197;-79
2022/01/11 02:25:29;;;;;;;10.63;2.50;;;27.30;99.90;;;;;;5054700;28;20194;-81
2022/01/11 02:28:00;;;;;;;10.70;2.53;;;27.30;99.90;;;;;;5071741;28;20205;-80
2022/01/11 02:30:32;;;;;;;7.28;2.00;;;27.30;99.90;;;;;;5074808;28;20239;-80
2022/01/11 02:33:07;;;;;;;11.27;2.17;;;27.40;99.90;;;;;;5074863;28;20204;-82
2022/01/11 02:35:40;;;;;;;13.98;2.40;;;27.70;99.90;;;;;;5061906;28;20284;-80
2022/01/11 02:38:11;;;;;;;12.27;2.42;;;27.90;99.90;;;;;;5071265;28;20221;-82
2022/01/11 02:40:41;;;;;;;12.32;2.17;;;28.00;99.90;;;;;;5073006;28;20189;-79
2022/01/11 02:43:15;;;;;;;9.80;2.08;;;27.90;99.90;;;;;;5074311;28;20192;-82
2022/01/11 02:45:46;;;;;;;10.57;1.92;;;27.80;99.90;;;;;;5074241;28;20571;-81
2022/01/11 02:48:16;;;;;;;10.50;1.98;;;27.80;99.90;;;;;;5074030;28;20193;-78
2022/01/11 02:50:50;;;;;;;8.45;2.13;;;27.70;99.90;;;;;;5074430;28;20193;-81
2022/01/11 02:53:21;;;;;;;11.02;2.25;;;27.60;99.90;;;;;;5074041;28;20199;-80
2022/01/11 02:55:51;;;;;;;10.32;2.55;;;27.60;99.90;;;;;;5074052;28;20197;-81
2022/01/11 02:58:22;;;;;;;13.45;2.25;;;27.70;99.90;;;;;;5074023;28;20220;-80
2022/01/11 03:00:53;;;;;;;12.80;2.70;;;27.60;99.90;;;;;;5073107;28;20217;-80
2022/01/11 03:03:25;;;;;;;11.57;2.17;;;27.60;99.90;;;;;;5073145;28;20200;-80
2022/01/11 03:05:58;;;;;;;10.77;2.30;;;27.40;99.90;;;;;;5073889;28;20196;-79
2022/01/11 03:08:33;;;;;;;13.95;2.45;;;27.20;99.90;;;;;;5073569;28;20231;-79
2022/01/11 03:11:05;;;;;;;10.82;2.05;;;27.10;99.90;;;;;;5073857;28;20563;-81
2022/01/11 03:13:36;;;;;;;12.07;1.95;;;27.10;99.90;;;;;;5073649;28;20241;-81
2022/01/11 03:16:07;;;;;;;10.70;2.10;;;26.90;99.90;;;;;;5073201;28;20197;-81
2022/01/11 03:18:38;;;;;;;10.77;2.00;;;26.80;99.90;;;;;;5069037;28;20215;-80
2022/01/11 03:21:11;;;;;;;13.65;2.33;;;26.90;99.90;;;;;;5063846;28;20209;-80
2022/01/11 03:23:42;;;;;;;12.43;2.42;;;26.80;99.90;;;;;;5058252;28;20293;-81
2022/01/11 03:26:12;;;;;;;13.45;2.33;;;26.80;99.90;;;;;;5053474;28;20556;-81
2022/01/11 03:28:43;;;;;;;12.93;2.58;;;26.90;99.90;;;;;;5053669;28;20193;-80
2022/01/11 03:31:14;;;;;;;15.45;2.40;;;27.00;99.90;;;;;;5053335;28;20190;-80
2022/01/11 03:33:48;;;;;;;12.15;2.20;;;27.00;99.90;;;;;;5053596;28;20193;-80
2022/01/11 03:36:20;;;;;;;14.02;2.38;;;26.90;99.90;;;;;;5071861;28;20192;-81
2022/01/11 03:38:51;;;;;;;11.40;2.10;;;26.80;99.90;;;;;;5077043;28;20217;-82
2022/01/11 03:41:22;;;;;;;14.65;2.40;;;26.80;99.90;;;;;;5074512;28;20268;-81
2022/01/11 03:43:52;;;;;;;15.23;2.70;;;26.80;99.90;;;;;;5075711;28;20212;-80
2022/01/11 03:46:23;;;;;;;16.48;2.63;;;26.70;99.90;;;;;;5070059;28;20185;-80
2022/01/11 03:48:54;;;;;;;13.98;2.60;;;26.70;99.90;;;;;;5061568;28;20211;-80
2022/01/11 03:51:26;;;;;;;15.75;2.80;;;26.60;99.90;;;;;;5061163;28;20656;-81
2022/01/11 03:54:04;;;;;;;14.45;2.63;;;26.50;99.90;;;;;;5053329;28;20201;-81
2022/01/11 03:56:35;;;;;;;13.50;2.60;;;26.50;99.90;;;;;;5055296;28;20560;-84
2022/01/11 03:59:08;;;;;;;16.83;2.67;;;26.50;99.90;;;;;;5053429;28;20224;-80
2022/01/11 04:01:39;;;;;;;15.32;2.28;;;26.30;99.90;;;;;;5067680;28;20234;-81
2022/01/11 04:04:11;;;;;;;14.10;2.50;;;26.20;99.90;;;;;;5052663;28;20206;-82
2022/01/11 04:06:44;;;;;;;19.17;2.75;;;26.30;99.90;;;;;;5051174;28;20599;-80
2022/01/11 04:09:15;;;;;;;16.00;2.65;;;26.30;99.90;;;;;;5063515;28;20194;-82
2022/01/11 04:11:46;;;;;;;16.15;2.83;;;26.30;99.90;;;;;;5058751;28;20189;-84
2022/01/11 04:14:16;;;;;;;14.68;2.70;;;26.20;99.90;;;;;;5069039;28;20228;-83
2022/01/11 04:16:48;;;;;;;17.90;3.35;;;26.30;99.90;;;;;;5071496;28;20193;-81
2022/01/11 04:19:19;;;;;;;16.13;2.65;;;26.30;99.90;;;;;;5066120;28;20253;-80
2022/01/11 04:21:52;;;;;;;15.20;2.58;;;26.30;99.90;;;;;;5052864;28;20196;-80
2022/01/11 04:24:23;;;;;;;16.50;2.88;;;26.40;99.90;;;;;;5061223;28;20641;-82
2022/01/11 04:26:53;;;;;;;16.80;3.13;;;26.40;99.90;;;;;;5070542;28;20192;-82
2022/01/11 04:29:24;;;;;;;18.27;2.40;;;26.40;99.90;;;;;;5068624;28;20192;-81
2022/01/11 04:31:55;;;;;;;17.95;2.60;;;26.50;99.90;;;;;;5061092;28;20194;-81
2022/01/11 04:34:27;;;;;;;15.52;2.95;;;26.50;99.90;;;;;;5061059;28;20215;-81
2022/01/11 04:37:00;;;;;;;16.58;2.88;;;26.50;99.90;;;;;;5059994;28;20201;-82
2022/01/11 04:39:30;;;;;;;14.70;2.63;;;26.50;99.90;;;;;;5065410;28;20218;-82
2022/01/11 04:42:01;;;;;;;17.80;2.60;;;26.50;99.90;;;;;;5058788;28;20200;-81
2022/01/11 04:44:32;;;;;;;18.52;2.83;;;26.50;99.90;;;;;;5068348;28;20275;-82
2022/01/11 04:47:02;;;;;;;15.63;2.80;;;26.50;99.90;;;;;;5062999;28;20196;-82
2022/01/11 04:49:33;;;;;;;18.63;2.60;;;26.50;99.90;;;;;;5064331;28;20190;-82
2022/01/11 04:52:06;;;;;;;21.52;3.50;;;26.50;99.90;;;;;;5058278;28;20197;-80
2022/01/11 04:54:37;;;;;;;15.60;3.00;;;26.50;99.90;;;;;;5061922;28;20557;-81
2022/01/11 04:57:08;;;;;;;13.30;2.45;;;26.50;99.90;;;;;;5072190;28;20216;-80
2022/01/11 04:59:39;;;;;;;15.75;2.75;;;26.50;99.90;;;;;;5071688;28;20267;-83
2022/01/11 05:02:09;;;;;;;18.38;2.75;;;26.50;99.90;;;;;;5072161;28;20615;-80
2022/01/11 05:04:40;;;;;;;17.27;3.03;;;26.40;99.90;;;;;;5075357;28;20554;-81
2022/01/11 05:07:12;;;;;;;17.05;3.08;;;26.40;99.90;;;;;;5076224;28;20189;-77
2022/01/11 05:09:43;;;;;;;17.58;3.30;;;26.40;99.90;;;;;;5076132;28;20645;-81
2022/01/11 05:12:14;;;;;;;18.92;3.42;;;26.30;99.90;;;;;;5073929;28;20197;-81
2022/01/11 05:14:45;;;;;;;15.05;2.40;;;26.30;99.90;;;;;;5064604;28;20230;-83
2022/01/11 05:17:16;;;;;;;16.08;2.83;;;26.20;99.90;;;;;;5091404;28;20199;-81
2022/01/11 05:19:46;;;;;;;18.88;2.95;;;26.20;99.90;;;;;;5096225;28;20223;-80
2022/01/11 05:22:19;;;;;;;17.02;3.05;;;26.10;99.90;;;;;;5096169;28;20655;-80
2022/01/11 05:24:50;;;;;;;17.98;3.03;;;26.00;99.90;;;;;;5096307;28;20199;-80
2022/01/11 05:27:21;;;;;;;13.73;2.42;;;26.10;99.90;;;;;;5078530;28;20215;-81
2022/01/11 05:29:52;;;;;;;13.43;3.05;;;26.00;99.90;;;;;;5055622;28;20259;-82
2022/01/11 05:32:22;;;;;;;14.77;3.03;;;26.00;99.90;;;;;;5057860;28;20213;-81
2022/01/11 05:34:53;;;;;;;18.10;2.83;;;26.00;99.90;;;;;;5075834;28;20604;-80
2022/01/11 05:37:26;;;;;;;15.13;2.60;;;25.90;99.90;;;;;;5075591;28;20185;-80
2022/01/11 05:39:58;;;;;;;14.73;2.60;;;25.80;99.90;;;;;;5075408;28;20225;-79
2022/01/11 05:42:29;;;;;;;12.00;2.55;;;25.80;99.90;;;;;;5075608;28;20229;-80
2022/01/11 05:45:00;;;;;;;17.25;2.58;;;25.80;99.90;;;;;;5075718;28;20219;-81
2022/01/11 05:47:31;;;;;;;13.90;2.25;;;25.80;99.90;;;;;;5075513;28;20556;-78
2022/01/11 05:50:03;;;;;;;14.50;2.35;;;25.80;99.90;;;;;;5075457;28;20204;-80
2022/01/11 05:52:36;;;;;;;19.08;2.47;;;25.70;99.90;;;;;;5072040;28;20227;-81
2022/01/11 05:55:08;;;;;;;12.05;2.17;;;25.70;99.90;;;;;;5072837;28;20665;-79
2022/01/11 05:57:39;;;;;;;12.60;2.53;;;25.60;99.90;;;;;;5075321;28;20196;-81
2022/01/11 06:00:12;;;;;;;18.70;2.38;;;25.70;99.90;;;;;;5074304;28;20311;-80
2022/01/11 06:02:47;;;;;;;13.90;2.60;;;25.70;99.90;;;;;;5074610;28;20197;-78
2022/01/11 06:05:19;;;;;;;13.18;2.35;;;25.70;99.90;;;;;;5075003;28;20192;-79
2022/01/11 06:07:51;;;;;;;15.85;2.60;;;25.70;99.90;;;;;;5074795;28;20640;-81
2022/01/11 06:10:22;;;;;;;14.52;2.50;;;25.70;99.90;;;;;;5074856;28;20205;-81
2022/01/11 06:12:53;;;;;;;19.60;3.08;;;25.70;99.90;;;;;;5074975;28;20189;-80
2022/01/11 06:15:23;;;;;;;12.45;2.55;;;25.60;99.90;;;;;;5074684;28;20688;-79
2022/01/11 06:17:54;;;;;;;13.55;2.28;;;25.60;99.90;;;;;;5068305;28;20193;-81
2022/01/11 06:20:25;;;;;;;10.18;2.40;;;25.60;99.90;;;;;;5054765;28;20225;-80
2022/01/11 06:22:57;;;;;;;13.90;1.92;;;25.60;99.90;;;;;;5070592;28;20189;-82
2022/01/11 06:25:28;;;;;;;9.88;2.00;;;25.60;99.90;;;;;;5064224;28;20197;-82
2022/01/11 06:27:59;;;;;;;13.10;2.13;;;25.60;99.90;;;;;;5061708;28;20193;-81
2022/01/11 06:30:29;;;;;;;12.20;2.50;;;25.60;99.90;;;;;;5063029;28;20191;-81
2022/01/11 06:33:00;;;;;;;15.32;2.75;;;25.60;99.90;;;;;;5074748;28;20192;-81
2022/01/11 06:35:31;;;;;;;16.75;2.85;;;25.60;99.90;;;;;;5074574;28;20201;-81
2022/01/11 06:38:03;;;;;;;10.45;2.20;;;25.50;99.90;;;;;;5070483;28;20194;-80
2022/01/11 06:40:34;;;;;;;14.20;2.83;;;25.50;99.90;;;;;;5074313;28;20216;-80
2022/01/11 06:43:06;;;;;;;14.50;2.28;;;25.60;99.90;;;;;;5068950;28;20189;-79
2022/01/11 06:45:38;;;;;;;14.05;2.63;;;25.50;99.90;;;;;;5070826;28;20201;-80
2022/01/11 06:48:09;;;;;;;16.02;2.70;;;25.40;99.90;;;;;;5065359;28;20719;-80
2022/01/11 06:50:48;;;;;;;15.25;2.70;;;25.40;99.90;;;;;;5072890;28;20208;-80
2022/01/11 06:53:24;;;;;;;16.02;2.40;;;25.40;99.90;;;;;;5066273;28;20204;-80
2022/01/11 06:55:55;;;;;;;12.68;2.22;;;25.40;99.90;;;;;;5076808;28;20687;-80
2022/01/11 06:58:27;;;;;;;14.45;2.33;;;25.40;99.90;;;;;;5064224;28;20201;-81
2022/01/11 07:00:57;;;;;;;13.00;2.55;;;25.30;99.90;;;;;;5064325;28;20243;-81
2022/01/11 07:03:29;;;;;;;15.50;2.70;;;25.30;99.90;;;;;;5070201;28;20192;-79
2022/01/11 07:05:59;;;;;;;14.30;2.47;;;25.30;99.90;;;;;;5073706;28;20235;-81
2022/01/11 07:08:32;;;;;;;11.60;2.60;;;25.40;99.90;;;;;;5073438;28;20495;-79
2022/01/11 07:11:02;;;;;;;12.32;2.53;;;25.40;99.90;;;;;;5073798;28;20189;-82
2022/01/11 07:13:33;;;;;;;15.10;2.40;;;25.30;99.90;;;;;;5073602;28;20263;-82
2022/01/11 07:16:04;;;;;;;17.30;2.78;;;25.40;99.90;;;;;;5073740;28;20663;-78
2022/01/11 07:18:35;;;;;;;13.48;2.63;;;25.40;99.90;;;;;;5053730;28;20201;-80
2022/01/11 07:21:05;;;;;;;15.95;2.58;;;25.30;99.90;;;;;;5061637;28;20637;-80
2022/01/11 07:23:38;;;;;;;12.85;2.50;;;25.40;99.90;;;;;;5073478;28;20189;-79
2022/01/11 07:26:09;;;;;;;13.02;2.47;;;25.30;99.90;;;;;;5072831;28;20204;-78
2022/01/11 07:28:40;;;;;;;13.40;2.25;;;25.30;99.90;;;;;;5073423;28;20197;-81
2022/01/11 07:31:10;;;;;;;17.42;2.75;;;25.20;99.90;;;;;;5073436;28;20189;-80
2022/01/11 07:33:44;;;;;;;17.88;2.92;;;25.20;99.90;;;;;;5073166;28;20204;-81
2022/01/11 07:36:16;;;;;;;12.68;2.50;;;25.20;99.90;;;;;;5073103;28;20197;-80
2022/01/11 07:38:50;;;;;;;15.65;2.20;;;25.20;99.90;;;;;;5073293;28;20193;-78
2022/01/11 07:41:21;;;;;;;13.13;2.15;;;25.10;99.90;;;;;;5073760;28;20188;-81
2022/01/11 07:43:52;;;;;;;15.27;2.78;;;25.10;99.90;;;;;;5073111;28;20193;-79
2022/01/11 07:46:23;;;;;;;14.20;2.33;;;25.00;99.90;;;;;;5073053;28;20649;-80
2022/01/11 07:48:54;;;;;;;13.40;3.08;;;25.00;99.90;;;;;;5072840;28;20705;-80
2022/01/11 07:51:25;;;;;;;14.43;2.72;;;25.00;99.90;;;;;;5072941;28;20189;-82
2022/01/11 07:53:57;;;;;;;14.30;2.40;;;24.90;99.90;;;;;;5076640;28;20196;-82
2022/01/11 07:56:28;;;;;;;18.38;2.83;;;24.90;99.90;;;;;;5073273;28;20615;-79
2022/01/11 07:58:59;;;;;;;15.73;2.65;;;24.90;99.90;;;;;;5072129;28;20221;-81
2022/01/11 08:01:30;;;;;;;13.63;2.45;;;24.90;99.90;;;;;;5065179;28;20215;-80
2022/01/11 08:04:01;;;;;;;13.07;2.58;;;24.90;99.90;;;;;;5055590;28;20193;-80
2022/01/11 08:06:32;;;;;;;14.27;2.38;;;24.90;99.90;;;;;;5072432;28;20603;-80
2022/01/11 08:09:05;;;;;;;18.63;2.78;;;24.90;99.90;;;;;;5072431;28;20189;-80
2022/01/11 08:11:39;;;;;;;14.95;2.80;;;24.80;99.90;;;;;;5073065;28;20196;-80
2022/01/11 08:14:09;;;;;;;15.35;2.38;;;24.90;99.90;;;;;;5072920;28;20237;-81
2022/01/11 08:16:40;;;;;;;15.88;2.75;;;24.90;99.90;;;;;;5072945;28;20193;-80
2022/01/11 08:19:11;;;;;;;17.13;3.10;;;24.90;99.90;;;;;;5072752;28;20193;-80
2022/01/11 08:21:42;;;;;;;13.57;2.50;;;24.90;99.90;;;;;;5072690;28;20182;-79
2022/01/11 08:24:16;;;;;;;14.98;2.60;;;24.90;99.90;;;;;;5073019;28;20200;-80
2022/01/11 08:26:46;;;;;;;17.27;2.60;;;24.80;99.90;;;;;;5072896;28;20195;-80
2022/01/11 08:29:18;;;;;;;19.77;2.85;;;24.80;99.90;;;;;;5072696;28;20250;-80
2022/01/11 08:31:49;;;;;;;16.80;2.85;;;24.80;99.90;;;;;;5072479;28;20592;-80
2022/01/11 08:34:20;;;;;;;15.73;2.33;;;24.80;99.90;;;;;;5070461;28;20189;-80
2022/01/11 08:36:54;;;;;;;17.10;2.38;;;24.80;99.90;;;;;;5072928;28;20189;-79
2022/01/11 08:39:27;;;;;;;18.52;2.90;;;24.80;99.90;;;;;;5075818;28;20216;-80
2022/01/11 08:41:57;;;;;;;24.13;3.38;;;24.80;99.90;;;;;;5076647;28;20189;-80
2022/01/11 08:44:28;;;;;;;19.45;3.03;;;24.80;99.90;;;;;;5076815;28;20193;-80
2022/01/11 08:46:59;;;;;;;19.63;2.85;;;24.80;99.90;;;;;;5076779;28;20197;-80
2022/01/11 08:49:29;;;;;;;19.98;3.20;;;24.70;99.90;;;;;;5076413;28;20204;-79
2022/01/11 08:52:00;;;;;;;18.23;3.08;;;24.70;99.90;;;;;;5076666;28;20196;-81
2022/01/11 08:54:32;;;;;;;18.10;3.00;;;24.60;99.90;;;;;;5076590;28;20185;-81
2022/01/11 08:57:03;;;;;;;18.42;2.80;;;24.60;99.90;;;;;;5079587;28;20580;-79
2022/01/11 08:59:35;;;;;;;20.38;3.10;;;24.60;99.90;;;;;;5075591;28;20228;-81
2022/01/11 09:02:07;;;;;;;14.88;2.75;;;24.50;99.90;;;;;;5069191;28;20196;-80
2022/01/11 09:04:37;;;;;;;21.65;2.67;;;24.50;99.90;;;;;;5076203;28;20193;-80
2022/01/11 09:07:08;;;;;;;19.50;2.90;;;24.30;99.90;;;;;;5076332;28;20193;-81
2022/01/11 09:09:41;;;;;;;16.67;2.60;;;24.50;99.90;;;;;;5076234;28;20204;-81
2022/01/11 09:12:13;;;;;;;20.15;3.00;;;24.40;99.90;;;;;;5075953;28;20634;-80
2022/01/11 09:14:44;;;;;;;20.92;2.80;;;24.40;99.90;;;;;;5076007;28;20232;-81
2022/01/11 09:17:16;;;;;;;18.15;2.97;;;24.30;99.90;;;;;;5075498;28;20197;-79
2022/01/11 09:19:46;;;;;;;16.52;2.70;;;24.30;99.90;;;;;;5076218;28;20213;-80
2022/01/11 09:22:17;;;;;;;17.02;2.47;;;24.30;99.90;;;;;;5075895;28;20193;-79
2022/01/11 09:24:50;;;;;;;18.02;2.97;;;24.30;99.90;;;;;;5074243;28;20192;-81
2022/01/11 09:27:20;;;;;;;20.90;3.03;;;24.20;99.90;;;;;;5075854;28;20250;-81
2022/01/11 09:29:51;;;;;;;15.93;3.00;;;24.20;99.90;;;;;;5075702;28;20578;-82
2022/01/11 09:32:22;;;;;;;17.98;2.83;;;24.10;99.90;;;;;;5073269;28;20200;-80
2022/01/11 09:34:53;;;;;;;15.55;2.47;;;24.10;99.90;;;;;;5070183;28;20226;-82
2022/01/11 09:37:25;;;;;;;20.08;2.67;;;24.10;99.90;;;;;;5055550;28;20194;-79
2022/01/11 09:39:57;;;;;;;22.05;3.10;;;24.10;99.90;;;;;;5055460;28;20258;-80
2022/01/11 09:42:29;;;;;;;20.98;2.95;;;24.00;99.90;;;;;;5055592;28;20634;-80
2022/01/11 09:45:01;;;;;;;15.60;2.60;;;24.00;99.90;;;;;;5055489;28;20194;-79
2022/01/11 09:47:32;;;;;;;20.08;3.28;;;24.00;99.90;;;;;;5055124;28;20588;-80
2022/01/11 09:50:03;;;;;;;20.83;2.70;;;24.00;99.90;;;;;;5054844;28;20201;-80
2022/01/11 09:52:34;;;;;;;15.90;2.67;;;24.00;99.90;;;;;;5055349;28;20193;-80
2022/01/11 09:55:09;;;;;;;15.90;2.50;;;24.00;99.90;;;;;;5055405;28;20190;-80
2022/01/11 09:57:40;;;;;;;22.52;3.13;;;24.00;99.90;;;;;;5063081;28;20216;-81
2022/01/11 10:00:13;;;;;;;18.23;2.95;;;24.00;99.90;;;;;;5074480;28;20204;-81
2022/01/11 10:02:47;;;;;;;17.35;2.70;;;23.90;99.90;;;;;;5074991;28;20196;-81
2022/01/11 10:05:22;;;;;;;19.80;3.00;;;23.90;99.90;;;;;;5075794;28;20188;-79
2022/01/11 10:07:52;;;;;;;17.20;2.50;;;23.90;99.90;;;;;;5075162;28;20275;-80
2022/01/11 10:10:28;;;;;;;20.10;2.88;;;24.00;99.90;;;;;;5075272;28;20641;-81
2022/01/11 10:13:03;;;;;;;15.07;2.95;;;24.00;99.90;;;;;;5074887;28;20234;-80
2022/01/11 10:15:36;;;;;;;16.27;2.78;;;24.00;99.90;;;;;;5074855;28;20228;-81
2022/01/11 10:18:07;;;;;;;17.38;2.53;;;24.00;99.90;;;;;;5075094;28;20189;-80
2022/01/11 10:20:39;;;;;;;20.83;2.97;;;24.00;99.90;;;;;;5074812;28;20216;-79
2022/01/11 10:23:13;;;;;;;17.50;2.80;;;24.00;99.90;;;;;;5074795;28;20189;-79
2022/01/11 10:25:51;;;;;;;15.88;2.85;;;24.00;99.90;;;;;;5074896;28;20257;-79
2022/01/11 10:28:36;;;;;;;20.00;2.88;;;24.00;99.90;;;;;;5074734;28;20216;-80
2022/01/11 10:31:06;;;;;;;17.08;2.60;;;24.00;99.90;;;;;;5072158;28;20242;-79
2022/01/11 10:33:40;;;;;;;20.38;2.63;;;24.00;99.90;;;;;;5074676;28;20566;-80
2022/01/11 10:36:13;;;;;;;18.98;2.92;;;24.00;99.90;;;;;;5074765;28;20204;-82
2022/01/11 10:38:47;;;;;;;17.42;2.80;;;24.10;99.90;;;;;;5074971;28;20229;-81
2022/01/11 10:41:47;;;;;;;20.52;2.80;;;24.10;99.90;;;;;;5074634;28;20221;-80
2022/01/11 10:44:51;;;;;;;17.65;2.45;;;24.00;99.90;;;;;;5074427;28;20184;-78
2022/01/11 10:47:27;;;;;;;15.48;2.25;;;24.10;99.90;;;;;;5074434;28;20283;-79
2022/01/11 10:50:01;;;;;;;15.23;2.28;;;24.00;99.90;;;;;;5074098;28;20189;-80
2022/01/11 10:52:34;;;;;;;13.93;2.63;;;24.00;99.90;;;;;;5073319;28;20196;-81
2022/01/11 10:55:07;;;;;;;12.35;2.40;;;24.00;99.90;;;;;;5074384;28;20192;-80
2022/01/11 10:57:42;;;;;;;12.60;2.10;;;24.00;99.90;;;;;;5073544;28;20569;-80
2022/01/11 11:00:27;;;;;;;18.65;2.85;;;24.00;99.90;;;;;;5072781;28;20212;-80
2022/01/11 11:03:03;;;;;;;17.65;2.67;;;24.00;99.90;;;;;;5074041;28;20185;-80
2022/01/11 11:05:36;;;;;;;18.20;2.58;;;24.00;99.90;;;;;;5074059;28;20192;-80
2022/01/11 11:08:13;;;;;;;18.27;2.67;;;24.00;99.90;;;;;;5074083;28;20196;-80
2022/01/11 11:10:49;;;;;;;14.63;2.70;;;24.00;99.90;;;;;;5073981;28;20188;-80
2022/01/11 11:13:27;;;;;;;15.00;2.25;;;24.00;99.90;;;;;;5073539;28;20632;-80
2022/01/11 11:15:58;;;;;;;16.17;2.30;;;24.00;99.90;;;;;;5073439;28;20238;-80
2022/01/11 11:18:34;;;;;;;15.93;2.28;;;24.00;99.90;;;;;;5069704;28;20263;-82
2022/01/11 11:21:21;;;;;;;16.90;2.03;;;23.90;99.90;;;;;;5066874;28;20222;-80
2022/01/11 11:23:53;;;;;;;13.48;2.10;;;23.90;99.90;;;;;;5073872;28;20212;-80
2022/01/11 11:26:36;;;;;;;12.40;2.30;;;23.90;99.90;;;;;;5073646;28;20698;-80
2022/01/11 11:29:10;;;;;;;14.50;2.17;;;23.90;99.90;;;;;;5073561;28;20208;-80
2022/01/11 11:31:41;;;;;;;21.80;2.50;;;23.90;99.90;;;;;;5073487;28;20200;-80
2022/01/11 11:34:13;;;;;;;14.05;2.20;;;23.90;99.90;;;;;;5073100;28;20193;-79
2022/01/11 11:36:45;;;;;;;14.15;2.45;;;23.90;99.90;;;;;;5059953;28;20201;-79
2022/01/11 11:39:21;;;;;;;17.02;2.63;;;23.90;99.90;;;;;;5058503;28;20229;-79
2022/01/11 11:41:53;;;;;;;19.75;2.20;;;23.90;99.90;;;;;;5053309;28;20220;-78
2022/01/11 11:44:30;;;;;;;12.25;2.30;;;23.80;99.90;;;;;;5057699;28;20697;-79
2022/01/11 11:47:05;;;;;;;21.15;2.85;;;23.80;99.90;;;;;;5067760;28;20193;-80
2022/01/11 11:49:49;;;;;;;18.95;2.35;;;23.80;99.90;;;;;;5068453;28;20277;-79
2022/01/11 11:52:22;;;;;;;18.08;2.25;;;23.80;99.90;;;;;;5071814;28;20205;-80
2022/01/11 11:54:54;;;;;;;16.23;2.67;;;23.80;99.90;;;;;;5072794;28;20189;-80
2022/01/11 11:57:27;;;;;;;15.35;2.35;;;23.80;99.90;;;;;;5072536;28;20224;-80
2022/01/11 12:00:07;;;;;;;21.35;2.75;;;23.80;99.90;;;;;;5072638;28;20201;-81
2022/01/11 12:02:39;;;;;;;14.40;2.17;;;23.70;99.90;;;;;;5053117;28;20204;-78
2022/01/11 12:05:11;;;;;;;17.17;2.30;;;23.70;99.90;;;;;;5052922;28;20284;-80
2022/01/11 12:07:45;;;;;;;15.73;2.72;;;23.70;99.90;;;;;;5054078;28;20185;-79
2022/01/11 12:10:28;;;;;;;18.95;2.70;;;23.70;99.90;;;;;;5060304;28;20719;-79
2022/01/11 12:12:59;;;;;;;15.70;2.50;;;23.70;99.90;;;;;;5058289;28;20276;-79
2022/01/11 12:15:40;;;;;;;15.18;2.42;;;23.60;99.90;;;;;;5065833;28;20229;-80
2022/01/11 12:18:20;;;;;;;15.38;2.70;;;23.60;99.90;;;;;;5066427;28;20189;-78
2022/01/11 12:20:53;;;;;;;13.65;2.13;;;23.60;99.90;;;;;;5057247;28;20213;-80
2022/01/11 12:23:58;;;;;;;18.50;2.33;;;23.60;99.90;;;;;;5062533;28;20188;-80
2022/01/11 12:26:30;;;;;;;18.17;2.53;;;23.60;99.90;;;;;;5070601;28;20196;-79
2022/01/11 12:29:24;;;;;;;19.80;2.38;;;23.50;99.90;;;;;;5069416;28;20255;-80
2022/01/11 12:31:59;;;;;;;16.35;2.50;;;23.40;99.90;;;;;;5057941;28;20208;-79
2022/01/11 12:34:53;;;;;;;11.93;2.13;;;23.40;99.90;;;;;;5056196;28;20189;-80
2022/01/11 12:37:36;;;;;;;14.60;2.65;;;23.40;99.90;;;;;;5049978;28;20194;-80
2022/01/11 12:40:25;;;;;;;15.15;2.40;;;23.40;99.90;;;;;;5052022;28;20205;-78
2022/01/11 12:43:02;;;;;;;17.33;2.55;;;23.40;99.90;;;;;;5061681;28;20185;-79
2022/01/11 12:46:01;;;;;;;16.20;2.50;;;23.40;99.90;;;;;;5070023;28;20189;-79
2022/01/11 12:48:58;;;;;;;18.63;2.40;;;23.30;99.90;;;;;;5062226;28;20203;-79
2022/01/11 12:51:35;;;;;;;18.17;2.55;;;23.30;99.90;;;;;;5058435;28;20194;-79
2022/01/11 12:54:18;;;;;;;18.58;2.47;;;23.30;99.90;;;;;;5067626;28;20224;-79
2022/01/11 12:56:51;;;;;;;15.00;2.22;;;23.30;99.90;;;;;;5060379;28;20193;-81
2022/01/11 12:59:23;;;;;;;14.40;2.17;;;23.30;99.90;;;;;;5065658;28;20235;-81
2022/01/11 13:02:12;;;;;;;14.95;2.10;;;23.30;99.90;;;;;;5060103;28;20221;-82
2022/01/11 13:04:50;;;;;;;13.60;2.42;;;23.30;99.90;;;;;;5062407;28;20192;-80
2022/01/11 13:07:25;;;;;;;14.18;2.30;;;23.30;99.90;;;;;;5069317;28;20184;-81
2022/01/11 13:10:14;;;;;;;15.68;2.30;;;23.30;99.90;;;;;;5067888;28;20591;-81